Time;durP1;ratioP1;P1;durP2;ratioP2;P2;SDS_P1;SDS_P2;PMS_P1;PMS_P2;Temp;Humidity;BMP_temperature;BMP_pressure;BME280_temperature;BME280_humidity;BME280_pressure;Samples;Min_cycle;Max_cycle;Signal;HPM_P1;HPM_P2
2024/03/17 00:01:25;;;;;;;;;;;;;;;;;;5023527;28;20041;-88
2024/03/17 00:03:51;;;;;;;11.93;5.20;;;;;;;;;;5028844;28;19909;-86
2024/03/17 00:06:17;;;;;;;10.98;5.45;;;;;;;;;;5021291;28;20038;-86
2024/03/17 00:08:43;;;;;;;;;;;;;;;;;;5024391;28;20037;-85
2024/03/17 00:11:10;;;;;;;11.60;5.20;;;;;;;;;;5027952;28;19909;-87
2024/03/17 00:13:36;;;;;;;;;;;;;;;;;;5026154;28;20348;-86
2024/03/17 00:16:03;;;;;;;12.57;5.65;;;;;;;;;;5028002;28;19916;-86
2024/03/17 00:18:30;;;;;;;13.68;5.45;;;;;;;;;;5020293;28;20450;-86
2024/03/17 00:20:56;;;;;;;11.52;4.80;;;;;;;;;;5024765;28;20072;-87
2024/03/17 00:23:22;;;;;;;;;;;;;;;;;;5024942;28;20031;-86
2024/03/17 00:25:50;;;;;;;11.27;4.47;;;;;;;;;;5028339;28;19999;-88
2024/03/17 00:28:16;;;;;;;12.38;5.00;;;;;;;;;;5024177;28;20493;-87
2024/03/17 00:30:43;;;;;;;;;;;;;;;;;;5032607;28;20037;-88
2024/03/17 00:33:10;;;;;;;13.70;5.18;;;;;;;;;;5037802;28;19913;-86
2024/03/17 00:35:36;;;;;;;10.32;4.60;;;;;;;;;;5030672;28;20040;-89
2024/03/17 00:38:09;;;;;;;12.13;5.15;;;;;;;;;;5028931;28;20045;-87
2024/03/17 00:40:36;;;;;;;11.02;5.00;;;;;;;;;;5028882;28;20036;-86
2024/03/17 00:43:02;;;;;;;;;;;;;;;;;;5025867;28;20128;-85
2024/03/17 00:45:28;;;;;;;10.73;4.57;;;;;;;;;;5021735;28;20015;-85
2024/03/17 00:47:54;;;;;;;12.20;5.28;;;;;;;;;;5025511;28;20094;-87
2024/03/17 00:50:20;;;;;;;;;;;;;;;;;;5022638;28;20041;-87
2024/03/17 00:52:46;;;;;;;11.95;5.18;;;;;;;;;;5024039;28;19921;-86
2024/03/17 00:55:14;;;;;;;;;;;;;;;;;;5017653;28;20920;-86
2024/03/17 00:57:40;;;;;;;12.88;5.57;;;;;;;;;;5027177;28;19897;-88
2024/03/17 01:00:06;;;;;;;;;;;;;;;;;;5029950;28;20087;-88
2024/03/17 01:02:32;;;;;;;10.23;5.07;;;;;;;;;;5029690;28;19935;-84
2024/03/17 01:04:58;;;;;;;14.63;7.88;;;;;;;;;;5028717;28;20099;-85
2024/03/17 01:07:25;;;;;;;12.20;6.20;;;;;;;;;;5022316;28;20483;-87
2024/03/17 01:09:52;;;;;;;13.60;6.55;;;;;;;;;;5029196;28;20037;-86
2024/03/17 01:12:18;;;;;;;13.32;5.93;;;;;;;;;;5023145;28;20101;-88
2024/03/17 01:14:44;;;;;;;;;;;;;;;;;;5028692;28;20539;-87
2024/03/17 01:17:10;;;;;;;13.70;6.85;;;;;;;;;;5025193;28;19963;-86
2024/03/17 01:19:36;;;;;;;;;;;;;;;;;;5022915;28;20369;-86
2024/03/17 01:22:02;;;;;;;12.23;5.80;;;;;;;;;;5023482;28;19913;-86
2024/03/17 01:24:33;;;;;;;10.35;4.93;;;;;;;;;;5018845;28;20030;-89
2024/03/17 01:26:59;;;;;;;12.60;5.45;;;;;;;;;;5021349;28;20744;-88
2024/03/17 01:29:26;;;;;;;11.00;4.28;;;;;;;;;;5021769;28;20395;-90
2024/03/17 01:31:52;;;;;;;11.05;4.55;;;;;;;;;;5024231;28;20108;-88
2024/03/17 01:34:18;;;;;;;;;;;;;;;;;;5020885;28;20584;-89
2024/03/17 01:36:44;;;;;;;10.75;4.63;;;;;;;;;;5026234;28;19975;-87
2024/03/17 01:39:11;;;;;;;10.45;4.80;;;;;;;;;;5022227;28;20075;-87
2024/03/17 01:41:40;;;;;;;11.82;5.15;;;;;;;;;;5019855;28;20040;-89
2024/03/17 01:44:07;;;;;;;11.85;6.53;;;;;;;;;;5024934;28;20044;-86
2024/03/17 01:46:33;;;;;;;14.73;7.97;;;;;;;;;;5021052;28;20041;-86
2024/03/17 01:48:59;;;;;;;17.60;10.45;;;;;;;;;;5017515;28;20600;-85
2024/03/17 01:51:26;;;;;;;18.10;11.68;;;;;;;;;;5012228;28;20177;-84
2024/03/17 01:53:52;;;;;;;;;;;;;;;;;;5018279;28;20035;-85
2024/03/17 01:56:18;;;;;;;21.42;14.32;;;;;;;;;;5015232;28;19913;-84
2024/03/17 01:58:47;;;;;;;23.92;15.85;;;;;;;;;;5016451;28;20727;-86
2024/03/17 02:01:14;;;;;;;23.67;15.68;;;;;;;;;;5017609;28;20037;-86
2024/03/17 02:03:41;;;;;;;25.33;16.92;;;;;;;;;;5019112;28;20037;-83
2024/03/17 02:06:09;;;;;;;23.95;16.67;;;;;;;;;;5016411;28;20029;-86
2024/03/17 02:08:51;;;;;;;26.45;17.52;;;;;;;;;;5019758;28;20026;-85
2024/03/17 02:11:32;;;;;;;31.95;19.50;;;;;;;;;;5016125;28;20032;-84
2024/03/17 02:13:59;;;;;;;30.17;20.75;;;;;;;;;;5020206;28;20149;-87
2024/03/17 02:16:25;;;;;;;28.10;19.65;;;;;;;;;;5023196;28;20032;-86
2024/03/17 02:18:58;;;;;;;28.50;18.98;;;;;;;;;;5022225;28;20029;-85
2024/03/17 02:21:27;;;;;;;30.27;20.40;;;;;;;;;;5019196;28;20033;-86
2024/03/17 02:23:53;;;;;;;26.45;19.17;;;;;;;;;;5022477;28;20533;-84
2024/03/17 02:26:20;;;;;;;27.00;19.15;;;;;;;;;;5017512;28;20041;-84
2024/03/17 02:28:46;;;;;;;;;;;;;;;;;;5022263;28;20021;-84
2024/03/17 02:31:13;;;;;;;28.30;20.13;;;;;;;;;;5022068;28;20405;-84
2024/03/17 02:33:39;;;;;;;27.10;19.33;;;;;;;;;;5013178;28;20040;-85
2024/03/17 02:36:09;;;;;;;31.35;21.63;;;;;;;;;;5015486;28;20101;-85
2024/03/17 02:41:21;;;;;;;25.25;18.67;;;;;;;;;;5017620;28;20056;-86
2024/03/17 02:43:48;;;;;;;26.65;18.83;;;;;;;;;;5023099;28;20116;-84
2024/03/17 02:46:15;;;;;;;25.65;17.98;;;;;;;;;;5015698;28;20399;-87
2024/03/17 02:48:47;;;;;;;27.63;18.95;;;;;;;;;;5017396;28;20055;-85
2024/03/17 02:51:16;;;;;;;29.67;19.35;;;;;;;;;;5018917;28;20033;-84
2024/03/17 02:53:44;;;;;;;28.55;18.63;;;;;;;;;;5019947;28;20037;-85
2024/03/17 02:56:10;;;;;;;28.13;19.70;;;;;;;;;;5018394;28;20065;-83
2024/03/17 02:58:37;;;;;;;;;;;;;;;;;;5021564;28;20923;-84
2024/03/17 03:01:09;;;;;;;26.70;18.02;;;;;;;;;;5023723;28;19917;-86
2024/03/17 03:03:36;;;;;;;30.48;17.60;;;;;;;;;;5018426;28;20032;-84
2024/03/17 03:06:04;;;;;;;26.80;18.55;;;;;;;;;;5021016;28;20143;-86
2024/03/17 03:08:30;;;;;;;26.30;18.38;;;;;;;;;;5014135;28;20048;-83
2024/03/17 03:10:57;;;;;;;24.33;17.38;;;;;;;;;;5018989;28;20083;-84
2024/03/17 03:13:23;;;;;;;;;;;;;;;;;;5019819;28;20033;-84
2024/03/17 03:15:49;;;;;;;26.15;17.90;;;;;;;;;;5018506;28;19912;-85
2024/03/17 03:18:16;;;;;;;33.17;17.08;;;;;;;;;;5017643;28;20033;-86
2024/03/17 03:20:43;;;;;;;36.40;18.67;;;;;;;;;;5020173;28;20032;-84
2024/03/17 03:23:09;;;;;;;29.27;19.08;;;;;;;;;;5019337;28;20025;-84
2024/03/17 03:25:35;;;;;;;27.45;19.33;;;;;;;;;;5015143;28;20037;-85
2024/03/17 03:28:02;;;;;;;29.23;18.58;;;;;;;;;;5020992;28;20054;-85
2024/03/17 03:30:28;;;;;;;24.23;17.98;;;;;;;;;;5019691;28;20040;-86
2024/03/17 03:32:55;;;;;;;24.90;17.85;;;;;;;;;;5016827;28;20036;-86
2024/03/17 03:35:21;;;;;;;26.27;17.98;;;;;;;;;;5018513;28;21029;-85
2024/03/17 03:37:47;;;;;;;25.27;16.80;;;;;;;;;;5020038;28;20047;-84
2024/03/17 03:40:20;;;;;;;24.42;16.60;;;;;;;;;;5013585;28;20033;-84
2024/03/17 03:42:47;;;;;;;24.25;16.40;;;;;;;;;;5015183;28;20131;-84
2024/03/17 03:45:13;;;;;;;;;;;;;;;;;;5018188;28;20048;-83
2024/03/17 03:47:42;;;;;;;21.10;15.20;;;;;;;;;;5020591;28;19917;-84
2024/03/17 03:50:09;;;;;;;22.42;16.75;;;;;;;;;;5027212;28;20038;-85
2024/03/17 03:52:36;;;;;;;22.77;14.98;;;;;;;;;;5030313;28;20029;-85
2024/03/17 03:55:04;;;;;;;18.95;13.48;;;;;;;;;;5027851;28;20025;-84
2024/03/17 03:57:31;;;;;;;24.20;12.68;;;;;;;;;;5018486;28;20042;-86
2024/03/17 03:59:58;;;;;;;24.52;12.88;;;;;;;;;;5020058;28;20587;-84
2024/03/17 04:02:27;;;;;;;16.30;11.45;;;;;;;;;;5019876;28;20025;-86
2024/03/17 04:04:53;;;;;;;15.73;10.43;;;;;;;;;;5021638;28;20097;-84
2024/03/17 04:07:19;;;;;;;15.15;9.93;;;;;;;;;;5023669;28;20799;-84
2024/03/17 04:09:45;;;;;;;17.67;10.35;;;;;;;;;;5024164;28;20324;-84
2024/03/17 04:12:12;;;;;;;15.20;10.13;;;;;;;;;;5021781;28;20026;-84
2024/03/17 04:14:38;;;;;;;16.33;9.80;;;;;;;;;;5023375;28;20041;-84
2024/03/17 04:17:05;;;;;;;;;;;;;;;;;;5020574;28;20024;-85
2024/03/17 04:19:31;;;;;;;15.35;10.18;;;;;;;;;;5013466;28;19956;-84
2024/03/17 04:21:57;;;;;;;14.93;10.07;;;;;;;;;;5017839;28;20132;-83
2024/03/17 04:24:23;;;;;;;15.00;10.48;;;;;;;;;;5016727;28;20036;-87
2024/03/17 04:26:50;;;;;;;15.77;11.38;;;;;;;;;;5022200;28;20050;-86
2024/03/17 04:29:16;;;;;;;17.58;12.27;;;;;;;;;;5014289;28;20033;-85
2024/03/17 04:31:43;;;;;;;17.40;12.60;;;;;;;;;;5017783;28;20048;-84
2024/03/17 04:34:09;;;;;;;17.60;13.38;;;;;;;;;;5020056;28;20125;-85
2024/03/17 04:36:35;;;;;;;17.92;13.07;;;;;;;;;;5014749;28;20246;-84
2024/03/17 04:39:01;;;;;;;15.13;11.13;;;;;;;;;;5017573;28;20041;-85
2024/03/17 04:41:27;;;;;;;17.13;10.82;;;;;;;;;;5012919;28;20048;-85
2024/03/17 04:43:53;;;;;;;14.57;10.45;;;;;;;;;;5029884;28;20096;-84
2024/03/17 04:46:20;;;;;;;16.02;10.93;;;;;;;;;;5020662;28;20033;-84
2024/03/17 04:48:46;;;;;;;;;;;;;;;;;;5018983;28;20498;-85
2024/03/17 04:51:15;;;;;;;16.50;10.82;;;;;;;;;;5018698;28;19917;-85
2024/03/17 04:53:42;;;;;;;16.90;10.80;;;;;;;;;;5018723;28;20037;-84
2024/03/17 05:06:48;;;;;;;25.92;11.63;;;;;;;;;;5056194;27;21289;-73
2024/03/17 05:09:20;;;;;;;34.88;11.63;;;;;;;;;;5017279;28;20048;-73
2024/03/17 05:11:48;;;;;;;20.23;10.27;;;;;;;;;;5021973;28;20035;-73
2024/03/17 05:14:15;;;;;;;22.75;10.63;;;;;;;;;;5016618;28;20037;-71
2024/03/17 05:16:43;;;;;;;24.17;10.95;;;;;;;;;;5021985;28;20533;-71
2024/03/17 05:19:11;;;;;;;28.00;11.10;;;;;;;;;;5024886;28;20099;-71
2024/03/17 05:21:39;;;;;;;19.05;11.52;;;;;;;;;;5021598;28;20021;-71
2024/03/17 05:24:06;;;;;;;28.25;13.02;;;;;;;;;;5025349;28;20021;-71
2024/03/17 05:26:33;;;;;;;52.33;14.27;;;;;;;;;;5017637;28;21365;-70
2024/03/17 05:29:01;;;;;;;41.03;15.63;;;;;;;;;;5024444;28;20027;-72
2024/03/17 05:31:29;;;;;;;21.38;14.45;;;;;;;;;;5019924;28;20040;-71
2024/03/17 05:33:57;;;;;;;32.50;15.90;;;;;;;;;;5019976;28;20033;-71
2024/03/17 05:36:26;;;;;;;30.10;15.93;;;;;;;;;;5018513;28;20130;-71
2024/03/17 05:38:53;;;;;;;25.52;14.98;;;;;;;;;;5024757;28;20029;-71
2024/03/17 05:41:21;;;;;;;20.63;15.65;;;;;;;;;;5017334;28;20017;-72
2024/03/17 05:43:48;;;;;;;22.25;14.63;;;;;;;;;;5027412;28;20068;-70
2024/03/17 05:46:17;;;;;;;33.58;16.27;;;;;;;;;;5015452;28;20041;-71
2024/03/17 05:48:44;;;;;;;22.70;15.48;;;;;;;;;;5023664;28;20048;-71
2024/03/17 05:51:13;;;;;;;22.13;14.80;;;;;;;;;;5019479;28;20037;-71
2024/03/17 05:53:51;;;;;;;22.45;14.70;;;;;;;;;;5018696;28;20126;-71
2024/03/17 05:56:18;;;;;;;26.13;15.43;;;;;;;;;;5016686;28;20644;-73
2024/03/17 05:58:48;;;;;;;20.63;15.48;;;;;;;;;;5019609;28;20044;-72
2024/03/17 06:01:17;;;;;;;25.52;15.00;;;;;;;;;;5016199;28;20469;-72
2024/03/17 06:03:44;;;;;;;27.75;15.98;;;;;;;;;;5018101;28;20086;-71
2024/03/17 06:06:11;;;;;;;22.48;14.77;;;;;;;;;;5035070;28;20649;-73
2024/03/17 06:08:39;;;;;;;26.95;15.35;;;;;;;;;;5028744;28;20025;-71
2024/03/17 06:11:08;;;;;;;32.22;15.02;;;;;;;;;;5030208;28;20040;-72
2024/03/17 06:13:36;;;;;;;21.13;14.40;;;;;;;;;;5021713;28;20086;-71
2024/03/17 06:16:06;;;;;;;22.45;14.07;;;;;;;;;;5027355;28;20752;-72
2024/03/17 06:18:35;;;;;;;32.13;14.52;;;;;;;;;;5024604;28;25002;-72
2024/03/17 06:21:05;;;;;;;17.42;13.32;;;;;;;;;;5029433;28;20024;-71
2024/03/17 06:23:33;;;;;;;24.00;14.15;;;;;;;;;;5021226;28;20495;-72
2024/03/17 06:26:02;;;;;;;20.40;13.55;;;;;;;;;;5029304;28;20535;-71
2024/03/17 06:28:30;;;;;;;25.48;13.43;;;;;;;;;;5024984;28;20369;-71
2024/03/17 06:31:03;;;;;;;16.42;11.75;;;;;;;;;;5020962;28;20032;-71
2024/03/17 06:33:32;;;;;;;20.05;13.00;;;;;;;;;;5024586;28;20064;-71
2024/03/17 06:36:06;;;;;;;18.92;11.70;;;;;;;;;;5022888;28;20028;-71
2024/03/17 06:38:37;;;;;;;15.85;11.07;;;;;;;;;;5022380;28;20056;-71
2024/03/17 06:41:05;;;;;;;26.73;12.07;;;;;;;;;;5025926;28;20037;-72
2024/03/17 06:43:32;;;;;;;14.45;10.73;;;;;;;;;;5020075;28;21061;-72
2024/03/17 06:46:00;;;;;;;15.52;10.90;;;;;;;;;;5028263;28;20637;-71
2024/03/17 06:48:28;;;;;;;14.35;10.35;;;;;;;;;;5023413;28;20028;-71
2024/03/17 06:50:56;;;;;;;16.08;11.82;;;;;;;;;;5030590;28;20044;-72
2024/03/17 06:53:28;;;;;;;14.15;10.13;;;;;;;;;;5019693;28;20035;-72
2024/03/17 06:55:58;;;;;;;16.05;11.32;;;;;;;;;;5026181;28;20041;-71
2024/03/17 06:58:29;;;;;;;14.50;10.68;;;;;;;;;;5024772;28;20040;-72
2024/03/17 07:00:59;;;;;;;12.85;9.82;;;;;;;;;;5021854;28;20033;-72
2024/03/17 07:03:29;;;;;;;13.45;10.43;;;;;;;;;;5022693;28;20040;-72
2024/03/17 07:06:07;;;;;;;13.52;10.30;;;;;;;;;;5023672;28;21166;-72
2024/03/17 07:08:36;;;;;;;13.45;10.10;;;;;;;;;;5022437;28;20118;-70
2024/03/17 07:11:08;;;;;;;14.10;10.30;;;;;;;;;;5028241;28;20040;-73
2024/03/17 07:13:37;;;;;;;13.20;8.98;;;;;;;;;;5023723;28;20529;-72
2024/03/17 07:16:09;;;;;;;13.55;9.18;;;;;;;;;;5026665;28;20021;-72
2024/03/17 07:18:38;;;;;;;12.05;9.07;;;;;;;;;;5020332;28;20076;-72
2024/03/17 07:21:06;;;;;;;13.27;9.75;;;;;;;;;;5027910;28;20044;-72
2024/03/17 07:23:34;;;;;;;13.35;9.70;;;;;;;;;;5020950;28;20096;-72
2024/03/17 07:26:01;;;;;;;13.10;9.57;;;;;;;;;;5026018;28;20721;-72
2024/03/17 07:28:29;;;;;;;13.20;9.23;;;;;;;;;;5022432;28;20043;-72
2024/03/17 07:30:57;;;;;;;12.35;8.68;;;;;;;;;;5029385;28;20723;-72
2024/03/17 07:33:24;;;;;;;13.30;9.70;;;;;;;;;;5022852;28;20021;-72
2024/03/17 07:36:05;;;;;;;12.80;9.45;;;;;;;;;;5022029;28;21399;-72
2024/03/17 07:38:35;;;;;;;14.05;9.95;;;;;;;;;;5024458;28;21527;-72
2024/03/17 07:41:12;;;;;;;12.90;9.15;;;;;;;;;;5026597;28;20438;-72
2024/03/17 07:43:39;;;;;;;13.15;10.05;;;;;;;;;;5023373;28;20028;-72
2024/03/17 07:46:12;;;;;;;12.38;9.07;;;;;;;;;;5025923;28;20033;-73
2024/03/17 07:48:42;;;;;;;13.15;9.65;;;;;;;;;;5024314;28;20514;-73
2024/03/17 07:51:16;;;;;;;13.18;8.80;;;;;;;;;;5028510;28;20107;-71
2024/03/17 07:53:45;;;;;;;12.70;8.05;;;;;;;;;;5024153;28;20036;-72
2024/03/17 07:56:14;;;;;;;12.00;7.63;;;;;;;;;;5025873;28;20175;-72
2024/03/17 07:58:45;;;;;;;11.30;7.68;;;;;;;;;;5034374;28;20115;-73
2024/03/17 08:01:17;;;;;;;10.85;7.55;;;;;;;;;;5033041;28;20079;-71
2024/03/17 08:03:46;;;;;;;12.57;8.40;;;;;;;;;;5034657;28;20429;-73
2024/03/17 08:06:13;;;;;;;13.52;9.15;;;;;;;;;;5033368;28;20036;-73
2024/03/17 08:08:42;;;;;;;11.18;7.80;;;;;;;;;;5035631;28;20032;-73
2024/03/17 08:11:10;;;;;;;12.98;8.30;;;;;;;;;;5034687;28;20025;-72
2024/03/17 08:13:39;;;;;;;12.35;8.60;;;;;;;;;;5029318;28;20470;-72
2024/03/17 08:16:11;;;;;;;12.35;8.18;;;;;;;;;;5033857;28;20048;-73
2024/03/17 08:18:43;;;;;;;12.00;8.20;;;;;;;;;;5032754;28;20748;-73
2024/03/17 08:21:10;;;;;;;13.70;9.30;;;;;;;;;;5034660;28;20071;-71
2024/03/17 08:23:47;;;;;;;13.82;8.07;;;;;;;;;;5030837;28;20135;-72
2024/03/17 08:26:14;;;;;;;;;;;;;;;;;;5034232;28;20113;-72
2024/03/17 08:28:43;;;;;;;12.15;8.52;;;;;;;;;;5034264;28;19938;-73
2024/03/17 08:31:11;;;;;;;12.15;8.90;;;;;;;;;;5032093;28;20062;-72
2024/03/17 08:33:42;;;;;;;12.52;9.20;;;;;;;;;;5032916;28;20043;-73
2024/03/17 08:36:10;;;;;;;12.73;8.32;;;;;;;;;;5035174;28;20061;-73
2024/03/17 08:38:38;;;;;;;13.00;9.13;;;;;;;;;;5030195;28;20033;-73
2024/03/17 08:41:09;;;;;;;12.40;8.65;;;;;;;;;;5029738;28;20039;-73
2024/03/17 08:43:37;;;;;;;12.70;9.27;;;;;;;;;;5028160;28;20034;-72
2024/03/17 08:46:08;;;;;;;12.50;8.52;;;;;;;;;;5029577;28;20131;-72
2024/03/17 08:48:38;;;;;;;12.48;7.93;;;;;;;;;;5026674;28;20397;-73
2024/03/17 08:51:10;;;;;;;12.02;8.15;;;;;;;;;;5030628;28;20085;-71
2024/03/17 08:53:39;;;;;;;13.45;8.95;;;;;;;;;;5026136;28;20036;-74
2024/03/17 08:56:06;;;;;;;14.65;9.45;;;;;;;;;;5022916;28;20121;-71
2024/03/17 08:58:34;;;;;;;13.82;8.85;;;;;;;;;;5018810;28;20021;-71
2024/03/17 09:01:14;;;;;;;14.25;9.25;;;;;;;;;;5025731;28;20020;-74
2024/03/17 09:03:42;;;;;;;14.98;9.95;;;;;;;;;;5021932;28;20044;-72
2024/03/17 09:06:16;;;;;;;16.08;9.82;;;;;;;;;;5022686;28;20681;-73
2024/03/17 09:08:44;;;;;;;15.15;10.70;;;;;;;;;;5014354;28;20379;-72
2024/03/17 09:11:15;;;;;;;15.93;11.02;;;;;;;;;;5022052;28;20040;-73
2024/03/17 09:13:42;;;;;;;13.30;9.43;;;;;;;;;;5022688;28;20037;-73
2024/03/17 09:16:13;;;;;;;15.80;10.02;;;;;;;;;;5021742;28;20029;-72
2024/03/17 09:18:42;;;;;;;14.80;10.32;;;;;;;;;;5021738;28;20060;-72
2024/03/17 09:21:10;;;;;;;14.77;10.63;;;;;;;;;;5023081;28;20424;-74
2024/03/17 09:23:38;;;;;;;13.50;9.40;;;;;;;;;;5018427;28;20027;-72
2024/03/17 09:26:11;;;;;;;16.45;10.55;;;;;;;;;;5020448;28;20075;-74
2024/03/17 09:28:39;;;;;;;18.55;12.00;;;;;;;;;;5020367;28;20028;-72
2024/03/17 09:31:07;;;;;;;18.85;12.27;;;;;;;;;;5022235;28;20028;-74
2024/03/17 09:33:35;;;;;;;18.50;12.63;;;;;;;;;;5016748;28;20037;-73
2024/03/17 09:36:08;;;;;;;18.65;13.55;;;;;;;;;;5018382;28;20114;-74
2024/03/17 09:38:37;;;;;;;18.77;13.52;;;;;;;;;;5016270;28;20034;-72
2024/03/17 09:41:04;;;;;;;17.55;13.00;;;;;;;;;;5021939;28;20052;-72
2024/03/17 09:43:37;;;;;;;19.02;12.82;;;;;;;;;;5022202;28;20106;-73
2024/03/17 09:46:05;;;;;;;19.25;13.05;;;;;;;;;;5026236;28;20029;-73
2024/03/17 09:48:34;;;;;;;18.52;13.13;;;;;;;;;;5021135;28;20024;-71
2024/03/17 09:51:02;;;;;;;20.17;13.93;;;;;;;;;;5021875;28;20054;-72
2024/03/17 09:53:35;;;;;;;19.15;12.85;;;;;;;;;;5004615;28;20433;-74
2024/03/17 09:56:16;;;;;;;18.83;13.48;;;;;;;;;;5020675;28;20053;-74
2024/03/17 09:58:50;;;;;;;18.77;11.85;;;;;;;;;;5031079;28;20017;-71
2024/03/17 10:01:18;;;;;;;19.35;12.48;;;;;;;;;;5022716;28;20048;-73
2024/03/17 10:03:55;;;;;;;19.83;12.93;;;;;;;;;;5020626;28;20599;-74
2024/03/17 10:06:23;;;;;;;17.35;11.93;;;;;;;;;;5021553;28;20121;-74
2024/03/17 10:08:55;;;;;;;20.60;11.65;;;;;;;;;;5006167;28;20103;-72
2024/03/17 10:11:25;;;;;;;19.23;11.60;;;;;;;;;;5022990;28;20036;-72
2024/03/17 10:14:08;;;;;;;15.32;10.05;;;;;;;;;;5024890;28;21006;-72
2024/03/17 10:16:37;;;;;;;15.77;10.30;;;;;;;;;;5016635;28;20056;-74
2024/03/17 10:19:23;;;;;;;16.50;10.48;;;;;;;;;;5028864;28;20041;-73
2024/03/17 10:21:51;;;;;;;18.55;11.23;;;;;;;;;;5006682;28;20036;-74
2024/03/17 10:24:24;;;;;;;18.92;11.77;;;;;;;;;;5024067;28;20357;-73
2024/03/17 10:26:51;;;;;;;18.67;11.95;;;;;;;;;;5026492;28;20028;-73
2024/03/17 10:29:31;;;;;;;18.00;11.60;;;;;;;;;;5020946;28;20076;-71
2024/03/17 10:32:03;;;;;;;17.02;10.40;;;;;;;;;;5025072;28;20052;-72
2024/03/17 10:34:38;;;;;;;17.65;10.45;;;;;;;;;;5006931;28;20139;-73
2024/03/17 10:37:26;;;;;;;18.85;12.20;;;;;;;;;;5026801;28;20207;-73
2024/03/17 10:39:55;;;;;;;17.20;10.60;;;;;;;;;;5026156;28;20029;-72
2024/03/17 10:42:35;;;;;;;15.77;9.13;;;;;;;;;;5023601;28;20044;-72
2024/03/17 10:45:07;;;;;;;18.88;9.27;;;;;;;;;;5024406;28;20037;-72
2024/03/17 10:47:36;;;;;;;15.40;8.15;;;;;;;;;;5025224;28;20785;-73
2024/03/17 10:50:04;;;;;;;16.08;8.32;;;;;;;;;;5021227;28;20033;-72
2024/03/17 10:52:35;;;;;;;15.05;8.50;;;;;;;;;;5024282;28;20037;-72
2024/03/17 10:55:09;;;;;;;13.40;6.85;;;;;;;;;;5026934;28;20234;-72
2024/03/17 10:57:49;;;;;;;14.32;6.88;;;;;;;;;;5001921;28;20037;-72
2024/03/17 11:00:21;;;;;;;16.27;6.47;;;;;;;;;;5026649;28;20040;-73
2024/03/17 11:02:50;;;;;;;12.00;5.80;;;;;;;;;;5023524;28;20745;-73
2024/03/17 11:05:20;;;;;;;12.32;6.00;;;;;;;;;;5021574;28;20025;-73
2024/03/17 11:07:49;;;;;;;12.82;6.47;;;;;;;;;;5028344;28;20039;-72
2024/03/17 11:10:28;;;;;;;13.13;6.47;;;;;;;;;;5027502;28;20035;-74
2024/03/17 11:12:58;;;;;;;11.00;5.78;;;;;;;;;;5024197;28;20399;-72
2024/03/17 11:15:38;;;;;;;13.23;6.30;;;;;;;;;;5024247;28;20104;-73
2024/03/17 11:18:20;;;;;;;13.68;5.47;;;;;;;;;;5024981;28;20040;-73
2024/03/17 11:21:15;;;;;;;11.80;5.35;;;;;;;;;;5026949;28;20025;-73
2024/03/17 11:23:43;;;;;;;12.93;6.30;;;;;;;;;;5028507;28;20718;-74
2024/03/17 11:26:10;;;;;;;13.30;7.07;;;;;;;;;;5027408;28;20052;-73
2024/03/17 11:28:47;;;;;;;14.35;6.85;;;;;;;;;;5026042;28;20085;-72
2024/03/17 11:31:32;;;;;;;14.25;6.70;;;;;;;;;;5017710;28;20037;-72
2024/03/17 11:34:02;;;;;;;12.63;6.43;;;;;;;;;;5031245;28;20031;-72
2024/03/17 11:36:36;;;;;;;12.27;6.70;;;;;;;;;;5027989;28;20510;-72
2024/03/17 11:39:19;;;;;;;13.45;7.65;;;;;;;;;;5024424;28;20036;-72
2024/03/17 11:41:48;;;;;;;14.85;8.50;;;;;;;;;;5030096;28;20012;-73
2024/03/17 11:44:29;;;;;;;13.95;7.63;;;;;;;;;;5024089;28;20033;-73
2024/03/17 11:46:57;;;;;;;15.15;7.43;;;;;;;;;;5033110;28;20115;-73
2024/03/17 11:49:43;;;;;;;13.77;6.88;;;;;;;;;;5025634;28;20037;-73
2024/03/17 11:52:23;;;;;;;13.00;6.63;;;;;;;;;;5030094;28;20043;-73
2024/03/17 11:54:52;;;;;;;12.23;6.25;;;;;;;;;;5016443;28;20053;-68
2024/03/17 11:57:24;;;;;;;12.30;5.88;;;;;;;;;;5023998;28;20037;-67
2024/03/17 11:59:52;;;;;;;13.48;7.00;;;;;;;;;;5028639;28;20078;-69
2024/03/17 12:02:34;;;;;;;13.02;7.05;;;;;;;;;;5023581;28;20036;-67
2024/03/17 12:05:02;;;;;;;13.05;7.32;;;;;;;;;;5027927;28;20063;-66
2024/03/17 12:07:31;;;;;;;12.20;6.50;;;;;;;;;;5021006;28;20504;-67
2024/03/17 12:09:59;;;;;;;13.85;6.50;;;;;;;;;;5030863;28;20033;-70
2024/03/17 12:12:34;;;;;;;12.40;6.18;;;;;;;;;;5025304;28;20658;-67
2024/03/17 12:15:05;;;;;;;11.07;6.40;;;;;;;;;;5028691;28;20410;-68
2024/03/17 12:17:34;;;;;;;11.38;6.15;;;;;;;;;;5018671;28;20072;-69
2024/03/17 12:20:21;;;;;;;13.25;6.13;;;;;;;;;;5026824;28;20021;-68
2024/03/17 12:22:52;;;;;;;11.82;6.50;;;;;;;;;;5032375;28;20111;-68
2024/03/17 12:25:23;;;;;;;11.65;5.90;;;;;;;;;;5026800;28;20036;-68
2024/03/17 12:27:52;;;;;;;13.30;6.53;;;;;;;;;;5027554;28;20163;-68
2024/03/17 12:30:20;;;;;;;13.20;6.72;;;;;;;;;;5026210;28;20618;-69
2024/03/17 12:32:50;;;;;;;14.20;6.68;;;;;;;;;;5031946;28;20199;-69
2024/03/17 12:35:17;;;;;;;13.52;6.70;;;;;;;;;;5026567;28;20036;-69
2024/03/17 12:37:47;;;;;;;12.77;6.63;;;;;;;;;;5030458;28;20111;-68
2024/03/17 12:40:24;;;;;;;11.50;5.90;;;;;;;;;;5023542;28;20064;-68
2024/03/17 12:43:11;;;;;;;14.82;6.00;;;;;;;;;;5025679;28;20111;-67
2024/03/17 12:45:40;;;;;;;11.05;5.43;;;;;;;;;;5023034;28;20037;-68
2024/03/17 12:48:17;;;;;;;11.18;5.03;;;;;;;;;;5023052;28;20064;-68
2024/03/17 12:50:48;;;;;;;11.43;4.75;;;;;;;;;;5023150;28;20575;-68
2024/03/17 12:53:19;;;;;;;10.38;4.45;;;;;;;;;;5025389;28;20714;-69
2024/03/17 13:01:26;;;;;;;10.93;5.50;;;;;;;;;;5022247;28;20506;-67
2024/03/17 13:03:52;;;;;;;12.73;6.82;;;;;;;;;;5026718;28;20052;-69
2024/03/17 13:06:27;;;;;;;12.95;5.50;;;;;;;;;;5023817;28;20108;-68
2024/03/17 13:08:55;;;;;;;11.25;5.68;;;;;;;;;;5024950;28;20033;-67
2024/03/17 13:11:23;;;;;;;13.68;6.35;;;;;;;;;;5019495;28;20716;-68
2024/03/17 13:13:52;;;;;;;12.75;6.20;;;;;;;;;;5029427;28;20096;-67
2024/03/17 13:16:20;;;;;;;12.57;7.35;;;;;;;;;;5029091;28;20052;-67
2024/03/17 13:18:47;;;;;;;12.82;6.63;;;;;;;;;;5029127;28;20024;-67
2024/03/17 13:21:15;;;;;;;11.52;6.50;;;;;;;;;;5029531;28;20124;-69
2024/03/17 13:23:41;;;;;;;11.40;5.85;;;;;;;;;;5031187;28;20046;-71
2024/03/17 13:26:08;;;;;;;11.68;5.38;;;;;;;;;;5032202;28;20087;-69
2024/03/17 13:28:36;;;;;;;11.68;5.80;;;;;;;;;;5027297;28;20033;-67
2024/03/17 13:31:05;;;;;;;10.98;4.95;;;;;;;;;;5032321;28;20687;-67
2024/03/17 13:33:33;;;;;;;11.57;5.93;;;;;;;;;;5029400;28;20032;-67
2024/03/17 13:36:00;;;;;;;13.13;5.88;;;;;;;;;;5027294;28;20071;-68
2024/03/17 13:38:28;;;;;;;9.57;5.28;;;;;;;;;;5017420;28;20112;-66
2024/03/17 13:40:56;;;;;;;14.55;6.03;;;;;;;;;;5021307;28;20035;-67
2024/03/17 13:43:23;;;;;;;12.48;5.97;;;;;;;;;;5018197;28;20060;-69
2024/03/17 13:45:51;;;;;;;10.60;5.40;;;;;;;;;;5017969;28;20033;-68
2024/03/17 13:48:18;;;;;;;11.90;5.60;;;;;;;;;;5017214;28;20037;-67
2024/03/17 13:50:49;;;;;;;10.10;4.70;;;;;;;;;;5018250;28;20025;-67
2024/03/17 13:53:16;;;;;;;10.68;4.80;;;;;;;;;;5018740;28;20576;-69
2024/03/17 13:55:46;;;;;;;10.63;5.03;;;;;;;;;;5021160;28;20032;-69
2024/03/17 13:58:14;;;;;;;10.63;5.28;;;;;;;;;;5017971;28;20029;-68
2024/03/17 14:00:42;;;;;;;9.32;4.75;;;;;;;;;;5024120;28;20035;-68
2024/03/17 14:03:10;;;;;;;12.52;4.90;;;;;;;;;;5021576;28;20052;-68
2024/03/17 14:05:38;;;;;;;11.32;5.07;;;;;;;;;;5015904;28;20104;-66
2024/03/17 14:08:05;;;;;;;10.57;5.03;;;;;;;;;;5017408;28;20041;-67
2024/03/17 14:10:35;;;;;;;11.80;4.93;;;;;;;;;;5015076;28;20156;-68
2024/03/17 14:13:04;;;;;;;11.98;4.65;;;;;;;;;;5020982;28;20119;-69
2024/03/17 14:15:31;;;;;;;10.98;4.97;;;;;;;;;;5016769;28;20099;-69
2024/03/17 14:17:58;;;;;;;13.27;5.10;;;;;;;;;;5018552;28;20055;-69
2024/03/17 14:20:26;;;;;;;10.27;5.22;;;;;;;;;;5012966;28;20013;-67
2024/03/17 14:22:57;;;;;;;10.32;5.00;;;;;;;;;;5014737;28;20039;-68
2024/03/17 14:25:25;;;;;;;11.30;4.90;;;;;;;;;;5008433;28;20029;-69
2024/03/17 14:27:55;;;;;;;10.88;4.75;;;;;;;;;;5014029;28;20033;-70
2024/03/17 14:30:22;;;;;;;11.43;5.05;;;;;;;;;;5010889;28;20036;-67
2024/03/17 14:32:49;;;;;;;16.45;4.90;;;;;;;;;;5012712;28;20033;-68
2024/03/17 14:35:22;;;;;;;9.82;4.60;;;;;;;;;;5006507;28;21025;-67
2024/03/17 14:37:52;;;;;;;9.77;5.15;;;;;;;;;;5013979;28;20025;-69
2024/03/17 14:40:22;;;;;;;10.77;5.25;;;;;;;;;;4992934;28;20540;-68
2024/03/17 14:42:50;;;;;;;10.95;4.70;;;;;;;;;;5013551;28;20052;-68
2024/03/17 14:45:23;;;;;;;9.73;4.35;;;;;;;;;;5011264;28;20095;-67
2024/03/17 14:47:55;;;;;;;9.73;4.35;;;;;;;;;;5010879;28;20462;-67
2024/03/17 14:50:23;;;;;;;10.60;4.70;;;;;;;;;;5011466;28;20041;-67
2024/03/17 14:52:50;;;;;;;11.02;4.38;;;;;;;;;;5015178;28;20564;-66
2024/03/17 14:55:19;;;;;;;10.02;4.30;;;;;;;;;;5008965;28;20037;-67
2024/03/17 14:57:48;;;;;;;9.15;4.13;;;;;;;;;;5011397;28;20029;-68
2024/03/17 15:00:16;;;;;;;11.48;4.45;;;;;;;;;;5011265;28;20029;-71
2024/03/17 15:02:48;;;;;;;10.32;4.90;;;;;;;;;;5010141;28;20051;-71